M I D A S
Marine Information and Data Acquisition System
Tripno 2289 of the Zeeleeuw from 2012-04-12 07:18:30 to 2012-04-12 14:09:51
Back to CruiseResearch ActivitiesStationsMapUnderway DataData graphs

EquipmentUnitsComment
TimeDGPSUTC
LatitudeDGPSDM.mWGS84
LongitudeDGPSDM.mWGS84
HeadingGyrodeg 
SOGDGPSknotsSpeed over ground
COGDGPSdegCourse over ground
DepthEcho soundermeters200 kHz
Missing or incorrect values are displayed as -999
Navigation data collected by the RV Zeeleeuw from 2012-04-12 06:46:42 to 2012-04-12 14:20:17
Time Latitude Longitude Heading SOG COG Depth
2012-04-12 06:47:47 51°13.637 2°56.021 126.1 -999 123 -999
2012-04-12 06:48:47 51°13.637 2°56.023 126.2 0.1 345 -999
2012-04-12 06:49:47 51°13.636 2°56.023 126.4 -999 296 -999
2012-04-12 06:50:47 51°13.636 2°56.022 126.4 0.2 146 -999
2012-04-12 06:51:47 51°13.635 2°56.021 126.4 -999 355 -999
2012-04-12 06:52:48 51°13.636 2°56.021 126.4 -999 341 -999
2012-04-12 06:53:47 51°13.635 2°56.021 126.5 -999 321 -999
2012-04-12 06:54:47 51°13.635 2°56.021 126.6 0.2 159 -999
2012-04-12 06:55:47 51°13.636 2°56.021 126.7 -999 6 -999
2012-04-12 06:56:48 51°13.636 2°56.02 126.7 0.1 336 -999
2012-04-12 06:57:47 51°13.635 2°56.022 126.7 -999 251 -999
2012-04-12 06:58:47 51°13.636 2°56.021 126.8 0.1 150 -999
2012-04-12 06:59:47 51°13.636 2°56.02 127.1 -999 126 -999
2012-04-12 07:00:47 51°13.636 2°56.02 126.5 0.2 353 -999
2012-04-12 07:01:47 51°13.636 2°56.02 126.5 -999 173 -999
2012-04-12 07:02:47 51°13.636 2°56.02 126.7 -999 303 -999
2012-04-12 07:03:48 51°13.635 2°56.021 126.7 0.1 131 -999
2012-04-12 07:04:47 51°13.636 2°56.02 126.9 -999 315 -999
2012-04-12 07:05:48 51°13.636 2°56.02 126.9 0.1 352 -999
2012-04-12 07:06:48 51°13.636 2°56.02 126.8 0.1 321 -999
2012-04-12 07:07:48 51°13.636 2°56.02 126.7 -999 357 -999
2012-04-12 07:08:48 51°13.636 2°56.02 126.7 -999 312 -999
2012-04-12 07:09:47 51°13.636 2°56.02 126.7 0.1 348 -999
2012-04-12 07:10:48 51°13.636 2°56.019 125.9 -999 345 -999
2012-04-12 07:11:48 51°13.636 2°56.019 125.5 0.1 184 -999
2012-04-12 07:12:48 51°13.636 2°56.019 125.3 0.1 174 -999
2012-04-12 07:13:47 51°13.638 2°56.019 125.2 -999 97 -999
2012-04-12 07:14:47 51°13.638 2°56.018 129 0.1 36 -999
2012-04-12 07:15:47 51°13.638 2°56.019 126.4 -999 217 -999
2012-04-12 07:16:47 51°13.636 2°56.019 116.7 0.1 178 -999
2012-04-12 07:17:48 51°13.637 2°56.007 107.1 1.5 286 -999
2012-04-12 07:18:47 51°13.65 2°55.947 110.8 3.1 289 -999
2012-04-12 07:19:48 51°13.676 2°55.858 121.7 4.2 300 -999
2012-04-12 07:20:47 51°13.721 2°55.763 132.7 4.8 312 -999
2012-04-12 07:21:48 51°13.779 2°55.674 144.9 4.7 322 -999
2012-04-12 07:22:47 51°13.849 2°55.621 166.9 4.9 345 -999
2012-04-12 07:23:48 51°13.926 2°55.611 192.4 3.9 9 -999
2012-04-12 07:24:47 51°13.972 2°55.641 223.7 2.3 36 -999
2012-04-12 07:25:47 51°13.983 2°55.629 276.3 2.3 287 11.5
2012-04-12 07:26:48 51°14.028 2°55.541 316.6 6.3 318 -999
2012-04-12 07:27:47 51°14.139 2°55.418 330.4 9.2 329 11.2
2012-04-12 07:28:47 51°14.281 2°55.287 333.3 10.3 331 11.1
2012-04-12 07:29:47 51°14.438 2°55.151 334.3 11 332 11.3
2012-04-12 07:30:46 51°14.599 2°54.997 328.1 12.2 323 12.8
2012-04-12 07:31:44 51°14.759 2°54.801 326.2 12.8 322 12.3
2012-04-12 07:32:44 51°14.924 2°54.589 320.9 12.7 319 12.6
2012-04-12 07:33:43 51°15.085 2°54.381 323.9 12.6 322 12
2012-04-12 07:34:44 51°15.253 2°54.179 324.3 12.3 323 12.3
2012-04-12 07:35:44 51°15.419 2°53.993 328.1 12.1 323 12.4
2012-04-12 07:36:42 51°15.579 2°53.812 328.1 12.2 323 12.5
2012-04-12 07:37:44 51°15.738 2°53.623 324.2 10.8 321 12.7
2012-04-12 07:38:44 51°15.85 2°53.489 326.7 6.6 324 13.2
2012-04-12 07:39:44 51°15.922 2°53.411 332.5 4.5 330 12.9
2012-04-12 07:40:44 51°15.984 2°53.372 346.4 3.9 343 13.1
2012-04-12 07:41:44 51°16.054 2°53.336 344.8 4.8 341 13.2
2012-04-12 07:42:43 51°16.135 2°53.285 339.4 5.5 335 13
2012-04-12 07:43:44 51°16.218 2°53.218 336.5 5.7 334 13.1
2012-04-12 07:44:44 51°16.301 2°53.159 339.4 5.3 337 13.2
2012-04-12 07:45:44 51°16.384 2°53.11 342.5 5.5 341 13.3
2012-04-12 07:46:44 51°16.479 2°53.051 341.1 6.5 338 13
2012-04-12 07:47:44 51°16.581 2°52.982 338.7 6.7 335 12.8
2012-04-12 07:48:44 51°16.677 2°52.904 334.3 6.1 331 12.2
2012-04-12 07:49:44 51°16.762 2°52.824 332 5.8 330 11.1
2012-04-12 07:50:44 51°16.846 2°52.749 333.3 5.8 332 10.5
2012-04-12 07:51:44 51°16.937 2°52.684 339.8 6.1 339 10.7
2012-04-12 07:52:44 51°17.032 2°52.624 337.4 6.3 337 10.8
2012-04-12 07:53:44 51°17.126 2°52.555 332.8 6.2 333 10.7
2012-04-12 07:54:44 51°17.217 2°52.476 332.4 6.3 332 11
2012-04-12 07:55:44 51°17.311 2°52.409 346.3 6.2 345 11.3
2012-04-12 07:56:44 51°17.413 2°52.381 355.7 6.2 352 11.4
2012-04-12 07:57:44 51°17.516 2°52.361 357.9 6.2 354 11.3
2012-04-12 07:58:44 51°17.618 2°52.342 357.5 6.1 353 11.3
2012-04-12 07:59:44 51°17.718 2°52.321 358.1 5.9 353 11.2
2012-04-12 08:00:44 51°17.819 2°52.309 3 6.1 358 11.4
2012-04-12 08:01:44 51°17.922 2°52.302 0.8 6.3 355 11.4
2012-04-12 08:02:44 51°18.022 2°52.28 355.7 6 351 11.6
2012-04-12 08:03:44 51°18.123 2°52.256 357.2 6.2 352 11.9
2012-04-12 08:04:44 51°18.225 2°52.236 359 6.1 354 12
2012-04-12 08:05:44 51°18.327 2°52.223 2.3 6.3 356 12.2
2012-04-12 08:06:44 51°18.429 2°52.214 1.3 6.2 356 12.2
2012-04-12 08:07:44 51°18.531 2°52.196 357.5 6.1 352 12.5
2012-04-12 08:08:44 51°18.632 2°52.17 356.3 6.2 351 12.9
2012-04-12 08:09:44 51°18.733 2°52.15 359.3 6.1 355 13.4
2012-04-12 08:10:44 51°18.835 2°52.139 3 6.1 357 13.9
2012-04-12 08:11:44 51°18.936 2°52.128 1.1 6.1 355 14.3
2012-04-12 08:12:44 51°19.038 2°52.106 355.9 6.2 350 14.9
2012-04-12 08:13:44 51°19.14 2°52.077 357.2 6.1 351 15.4
2012-04-12 08:14:44 51°19.241 2°52.061 2.8 6.1 357 15.7
2012-04-12 08:15:44 51°19.341 2°52.052 1 6 355 16
2012-04-12 08:16:44 51°19.44 2°52.032 355.7 6.1 350 16.2
2012-04-12 08:17:44 51°19.538 2°52.009 357.1 5.8 352 16.3
2012-04-12 08:18:44 51°19.635 2°51.991 358.3 5.7 354 16.5
2012-04-12 08:19:44 51°19.732 2°51.979 2.2 5.9 358 16.6
2012-04-12 08:20:44 51°19.829 2°51.973 2.2 5.8 357 16.3
2012-04-12 08:21:44 51°19.926 2°51.96 358.7 5.9 354 16.2
2012-04-12 08:22:44 51°20.023 2°51.934 355.2 5.9 350 15.9
2012-04-12 08:23:44 51°20.121 2°51.911 359 5.9 353 15.6
2012-04-12 08:24:44 51°20.218 2°51.898 2.9 5.9 356 15.3
2012-04-12 08:25:44 51°20.316 2°51.885 0.9 5.9 352 14.3
2012-04-12 08:26:44 51°20.408 2°51.831 337.8 6 330 14.6
2012-04-12 08:27:44 51°20.485 2°51.73 318.5 6.1 312 14.4
2012-04-12 08:28:44 51°20.537 2°51.59 296.5 6.2 292 15.3
2012-04-12 08:29:44 51°20.564 2°51.43 280.2 6.3 277 15.2
2012-04-12 08:30:44 51°20.556 2°51.265 261.2 6.3 260 16.7
2012-04-12 08:31:44 51°20.54 2°51.099 262.9 6.4 262 16.8
2012-04-12 08:32:44 51°20.529 2°50.936 265.7 6 266 16.6
2012-04-12 08:33:44 51°20.521 2°50.778 267.4 6 266 17.5
2012-04-12 08:34:44 51°20.516 2°50.62 269.8 5.9 269 18.4
2012-04-12 08:35:44 51°20.516 2°50.462 273.6 5.9 270 19.2
2012-04-12 08:36:44 51°20.515 2°50.304 272.9 5.9 269 20.1
2012-04-12 08:37:44 51°20.515 2°50.145 271.7 6 269 20.9
2012-04-12 08:38:44 51°20.51 2°49.985 265.7 6.1 266 21.6
2012-04-12 08:39:44 51°20.502 2°49.824 268.7 6.1 268 22.4
2012-04-12 08:40:44 51°20.501 2°49.661 271.1 6.1 270 22.7
2012-04-12 08:41:44 51°20.5 2°49.501 271.7 6.1 271 23.1
2012-04-12 08:42:44 51°20.502 2°49.34 272.6 6.1 271 23.1
2012-04-12 08:43:44 51°20.503 2°49.179 270.7 6.1 269 23.1
2012-04-12 08:44:44 51°20.496 2°49.018 266.1 6.1 266 23
2012-04-12 08:45:44 51°20.49 2°48.857 269 6.1 269 22.9
2012-04-12 08:46:44 51°20.49 2°48.694 272.3 6.2 272 22.8
2012-04-12 08:47:44 51°20.486 2°48.532 268.8 6.1 265 23
2012-04-12 08:48:44 51°20.479 2°48.373 272.2 6.1 268 22.2
2012-04-12 08:49:44 51°20.477 2°48.216 273.4 5.9 269 21.8
2012-04-12 08:50:44 51°20.471 2°48.057 270.1 6 265 21.5
2012-04-12 08:51:44 51°20.46 2°47.899 266.8 6 264 21
2012-04-12 08:52:44 51°20.46 2°47.74 280.2 6 276 20.4
2012-04-12 08:53:44 51°20.475 2°47.585 285.3 6 280 18.7
2012-04-12 08:54:44 51°20.49 2°47.427 283.4 6 278 18.1
2012-04-12 08:55:44 51°20.502 2°47.267 281.1 6.1 276 18.3
2012-04-12 08:56:44 51°20.51 2°47.104 277.5 6.2 272 17.8
2012-04-12 08:57:44 51°20.514 2°46.94 276.8 6.2 273 16.2
2012-04-12 08:58:44 51°20.523 2°46.776 281 6.2 277 16.7
2012-04-12 08:59:44 51°20.538 2°46.612 283.7 6.3 276 18.5
2012-04-12 09:00:44 51°20.551 2°46.446 281.7 6.3 279 20.3
2012-04-12 09:01:44 51°20.559 2°46.279 276.9 6.3 273 20.5
2012-04-12 09:02:44 51°20.563 2°46.111 277.8 6.3 273 21.2
2012-04-12 09:03:44 51°20.567 2°45.943 269.5 6.2 265 21.7
2012-04-12 09:04:44 51°20.533 2°45.796 232.8 5.8 237 22.8
2012-04-12 09:05:44 51°20.459 2°45.707 196.1 5.4 205 21.1
2012-04-12 09:06:44 51°20.37 2°45.666 181.1 5.5 191 21.8
2012-04-12 09:07:44 51°20.277 2°45.65 174.7 5.6 185 19.9
2012-04-12 09:08:44 51°20.19 2°45.665 152.7 5 163 18.3
2012-04-12 09:09:44 51°20.123 2°45.729 129.2 4.5 138 15.1
2012-04-12 09:10:44 51°20.088 2°45.824 103 4.1 107 15.9
2012-04-12 09:11:44 51°20.085 2°45.932 86.8 4.2 86 12.3
2012-04-12 09:12:44 51°20.086 2°46.045 90.5 4.3 92 15.5
2012-04-12 09:13:44 51°20.077 2°46.16 97 4.4 101 13.2
2012-04-12 09:14:44 51°20.069 2°46.276 92.4 4.3 94 12.6
2012-04-12 09:15:44 51°20.065 2°46.393 90.8 4.5 93 15.3
2012-04-12 09:16:44 51°20.064 2°46.521 88.1 5 90 15.3
2012-04-12 09:17:44 51°20.063 2°46.658 90.3 5.2 93 16.2
2012-04-12 09:18:44 51°20.047 2°46.797 99.7 5.3 103 17.8
2012-04-12 09:19:44 51°20.029 2°46.935 93.1 5.2 96 19.2
2012-04-12 09:20:44 51°20.025 2°47.075 86.1 5.3 90 18.4
2012-04-12 09:21:44 51°20.025 2°47.214 87.5 5.3 92 20.4
2012-04-12 09:22:44 51°20.02 2°47.355 90.1 5.2 93 20.9
2012-04-12 09:23:44 51°20.013 2°47.493 94.9 5.3 97 21.2
2012-04-12 09:24:44 51°20.004 2°47.641 91.7 5.7 94 21.6
2012-04-12 09:25:44 51°20.001 2°47.792 87.9 5.7 90 21.8
2012-04-12 09:26:44 51°20.002 2°47.943 87.9 5.7 93 22
2012-04-12 09:27:44 51°19.998 2°48.093 92.3 5.6 96 22
2012-04-12 09:28:44 51°19.986 2°48.243 93.7 5.6 97 22
2012-04-12 09:29:44 51°19.979 2°48.392 88.3 5.6 90 22.1
2012-04-12 09:30:44 51°19.979 2°48.541 87.2 5.6 90 22.1
2012-04-12 09:31:44 51°19.976 2°48.691 90.8 5.6 94 21.9
2012-04-12 09:32:44 51°19.964 2°48.842 93.6 5.7 98 21.2
2012-04-12 09:33:44 51°19.956 2°48.992 88.9 5.6 90 20.4
2012-04-12 09:34:44 51°19.956 2°49.143 87.6 5.7 91 19.8
2012-04-12 09:35:44 51°19.951 2°49.296 90.1 5.8 95 18.9
2012-04-12 09:36:44 51°19.94 2°49.449 91.5 5.7 96 18
2012-04-12 09:37:44 51°19.929 2°49.601 90.9 5.7 97 17.3
2012-04-12 09:38:44 51°19.922 2°49.753 89.8 5.8 94 16.4
2012-04-12 09:39:44 51°19.917 2°49.904 88 5.6 91 15.4
2012-04-12 09:40:44 51°19.912 2°50.055 90.1 5.6 96 15
2012-04-12 09:41:44 51°19.896 2°50.205 93.7 5.6 97 13.7
2012-04-12 09:42:44 51°19.887 2°50.348 89.4 4.9 94 13.7
2012-04-12 09:43:44 51°19.884 2°50.464 86.5 4 92 13.5
2012-04-12 09:44:44 51°19.88 2°50.57 90.1 3.9 95 13
2012-04-12 09:45:44 51°19.87 2°50.671 94.5 3.9 102 12.2
2012-04-12 09:46:44 51°19.859 2°50.769 93.3 3.8 101 12.1
2012-04-12 09:47:44 51°19.851 2°50.867 89.6 3.6 93 12
2012-04-12 09:48:44 51°19.849 2°50.964 85.8 3.5 90 12.3
2012-04-12 09:49:44 51°19.846 2°51.063 89.5 3.6 97 12
2012-04-12 09:50:44 51°19.835 2°51.161 94.5 3.7 103 11.7
2012-04-12 09:51:44 51°19.822 2°51.259 92.3 3.8 101 13.3
2012-04-12 09:52:44 51°19.813 2°51.358 89.2 3.6 94 13.9
2012-04-12 09:53:44 51°19.808 2°51.458 86.5 3.8 94 14.3
2012-04-12 09:54:44 51°19.804 2°51.557 85.5 3.6 90 14.4
2012-04-12 09:55:44 51°19.827 2°51.633 49.8 3.1 40 14.4
2012-04-12 09:56:44 51°19.879 2°51.664 23.7 3.5 6 14.6
2012-04-12 09:57:44 51°19.942 2°51.649 -999 4.1 341 14.4
2012-04-12 09:58:44 51°20.003 2°51.591 339 4.5 321 14
2012-04-12 09:59:44 51°20.054 2°51.492 316.5 5.1 301 12.9
2012-04-12 10:00:44 51°20.084 2°51.361 297.4 5.5 285 12.2
2012-04-12 10:01:44 51°20.103 2°51.213 291.2 5.8 279 12.4
2012-04-12 10:02:44 51°20.113 2°51.056 282.5 6 272 13.3
2012-04-12 10:03:44 51°20.118 2°50.898 282.9 6 273 13.5
2012-04-12 10:04:44 51°20.124 2°50.739 283.9 6 275 14
2012-04-12 10:05:44 51°20.135 2°50.581 288.1 6 277 15
2012-04-12 10:06:44 51°20.15 2°50.426 289.8 5.9 278 15.3
2012-04-12 10:07:44 51°20.154 2°50.268 279.1 6 269 15.5
2012-04-12 10:08:44 51°20.146 2°50.109 274.9 6.1 264 16.3
2012-04-12 10:09:44 51°20.138 2°49.951 277.3 6 266 17.2
2012-04-12 10:10:44 51°20.133 2°49.792 280.6 5.9 269 18
2012-04-12 10:11:44 51°20.133 2°49.638 283.2 5.8 271 18.8
2012-04-12 10:12:44 51°20.133 2°49.485 281 5.7 268 19.7
2012-04-12 10:13:44 51°20.128 2°49.331 275.5 5.8 265 20.4
2012-04-12 10:14:44 51°20.122 2°49.177 277.2 5.8 267 21
2012-04-12 10:15:44 51°20.122 2°49.022 279.5 5.9 271 21.5
2012-04-12 10:16:44 51°20.122 2°48.868 279.5 6 270 21.8
2012-04-12 10:17:44 51°20.12 2°48.713 278.4 6.1 270 22
2012-04-12 10:18:44 51°20.117 2°48.556 277.9 6.1 268 22
2012-04-12 10:19:44 51°20.114 2°48.399 278.5 6 269 21.9
2012-04-12 10:20:44 51°20.114 2°48.242 282.7 5.9 271 22
2012-04-12 10:21:44 51°20.118 2°48.085 282.1 5.9 271 21.8
2012-04-12 10:22:44 51°20.117 2°47.926 278.2 5.9 268 21.7
2012-04-12 10:23:44 51°20.112 2°47.767 275.3 6.1 267 21.5
2012-04-12 10:24:44 51°20.106 2°47.607 276.6 6 267 21
2012-04-12 10:25:44 51°20.105 2°47.448 281.7 6.1 271 20.1
2012-04-12 10:26:44 51°20.108 2°47.29 282.5 5.8 272 19.8
2012-04-12 10:27:44 51°20.11 2°47.13 281.1 6.1 270 19.1
2012-04-12 10:28:44 51°20.107 2°46.971 276.3 6.1 267 18
2012-04-12 10:29:44 51°20.101 2°46.811 275.9 6.1 266 15.8
2012-04-12 10:30:44 51°20.099 2°46.65 279 6 270 15.5
2012-04-12 10:31:44 51°20.103 2°46.49 283.2 6 273 14.5
2012-04-12 10:32:44 51°20.109 2°46.329 282.3 6.1 273 14.4
2012-04-12 10:33:44 51°20.111 2°46.17 277.7 6.1 270 15.1
2012-04-12 10:34:44 51°20.108 2°46.007 275.7 6.2 269 15.2
2012-04-12 10:35:44 51°20.105 2°45.844 276.8 6.2 269 15
2012-04-12 10:36:44 51°20.107 2°45.68 280.9 6.3 272 15.2
2012-04-12 10:37:44 51°20.114 2°45.517 282.7 6.1 274 20.2
2012-04-12 10:38:44 51°20.117 2°45.354 281.1 6.1 272 22.1
2012-04-12 10:39:44 51°20.128 2°45.199 293.6 5.6 282 22.6
2012-04-12 10:40:44 51°20.16 2°45.065 318.8 5 303 22.9
2012-04-12 10:41:44 51°20.214 2°44.981 346.3 4.2 328 23.6
2012-04-12 10:42:44 51°20.275 2°44.948 12.7 3.7 355 23.9
2012-04-12 10:43:44 51°20.329 2°44.968 38.9 3.2 29 24.3
2012-04-12 10:44:44 51°20.362 2°45.031 64.7 3 68 24.1
2012-04-12 10:45:44 51°20.366 2°45.117 82.3 3.4 92 24.1
2012-04-12 10:46:44 51°20.367 2°45.208 78.5 3.5 87 23.6
2012-04-12 10:47:44 51°20.373 2°45.3 76.5 3.4 84 23.9
2012-04-12 10:48:44 51°20.376 2°45.394 79.9 3.5 89 23.8
2012-04-12 10:49:44 51°20.38 2°45.488 79.7 3.5 85 23.6
2012-04-12 10:50:44 51°20.381 2°45.582 84.7 3.7 92 23
2012-04-12 10:51:44 51°20.381 2°45.675 81.9 3.5 88 21.3
2012-04-12 10:52:44 51°20.385 2°45.768 78.2 3.5 83 21.2
2012-04-12 10:53:44 51°20.394 2°45.858 76.3 3.4 81 20.4
2012-04-12 10:54:44 51°20.401 2°45.95 81.4 3.5 89 17.6
2012-04-12 10:55:44 51°20.394 2°46.043 91.7 3.5 105 15.4
2012-04-12 10:56:44 51°20.384 2°46.131 85 3.3 95 17.9
2012-04-12 10:57:44 51°20.384 2°46.219 81.4 3.4 89 19.5
2012-04-12 10:58:44 51°20.383 2°46.309 86.4 3.5 97 18.3
2012-04-12 10:59:44 51°20.373 2°46.401 89.9 3.4 101 15.8
2012-04-12 11:00:44 51°20.365 2°46.493 86.8 3.4 97 16.5
2012-04-12 11:01:44 51°20.361 2°46.585 83.9 3.4 94 16.3
2012-04-12 11:02:44 51°20.36 2°46.676 82.2 3.4 92 16.3
2012-04-12 11:03:44 51°20.356 2°46.767 85 3.4 96 17.1
2012-04-12 11:04:44 51°20.348 2°46.86 86.5 3.6 99 14.4
2012-04-12 11:05:44 51°20.342 2°46.952 83.6 3.5 95 13.9
2012-04-12 11:06:44 51°20.34 2°47.042 78.4 3.4 89 17.2
2012-04-12 11:07:44 51°20.342 2°47.133 79.5 3.4 90 18.2
2012-04-12 11:08:44 51°20.339 2°47.226 82.8 3.6 96 17.7
2012-04-12 11:09:44 51°20.33 2°47.319 86.5 3.6 99 18.7
2012-04-12 11:10:44 51°20.323 2°47.413 83.6 3.5 97 19.3
2012-04-12 11:11:44 51°20.318 2°47.506 80.7 3.5 93 19.1
2012-04-12 11:12:44 51°20.318 2°47.597 78.9 3.4 91 20
2012-04-12 11:13:44 51°20.316 2°47.689 81.7 3.5 94 20.5
2012-04-12 11:14:44 51°20.308 2°47.783 86.4 3.6 100 20.6
2012-04-12 11:15:44 51°20.298 2°47.876 84.5 3.5 98 21.1
2012-04-12 11:16:44 51°20.293 2°47.968 80.2 3.4 93 21.3
2012-04-12 11:17:44 51°20.292 2°48.059 78.7 3.4 90 21.5
2012-04-12 11:18:44 51°20.29 2°48.151 82.1 3.4 94 21.8
2012-04-12 11:19:44 51°20.282 2°48.244 85.8 3.6 101 22.2
2012-04-12 11:20:44 51°20.271 2°48.338 84.3 3.6 99 22.2
2012-04-12 11:21:44 51°20.266 2°48.43 79.3 3.4 90 22.3
2012-04-12 11:22:44 51°20.264 2°48.52 79.5 3.4 93 22.4
2012-04-12 11:23:44 51°20.258 2°48.612 82.6 3.5 98 22.4
2012-04-12 11:24:44 51°20.253 2°48.704 78.3 3.4 92 22.5
2012-04-12 11:25:44 51°20.256 2°48.792 72.7 3.3 84 22.4
2012-04-12 11:26:44 51°20.264 2°48.879 73.4 3.3 83 22.4
2012-04-12 11:27:44 51°20.268 2°48.969 77.7 3.4 88 22.3
2012-04-12 11:28:44 51°20.267 2°49.062 80.9 3.5 93 22.4
2012-04-12 11:29:44 51°20.268 2°49.154 77.6 3.5 88 22.2
2012-04-12 11:30:44 51°20.272 2°49.245 74.7 3.4 84 22
2012-04-12 11:31:44 51°20.28 2°49.331 72.5 3.2 83 22
2012-04-12 11:32:44 51°20.285 2°49.418 76.5 3.3 88 21.7
2012-04-12 11:33:44 51°20.283 2°49.507 80.2 3.4 94 21.3
2012-04-12 11:34:44 51°20.282 2°49.596 76.9 3.3 89 21.1
2012-04-12 11:35:44 51°20.287 2°49.682 72.6 3.3 84 20.6
2012-04-12 11:36:44 51°20.293 2°49.769 74.1 3.3 87 20.1
2012-04-12 11:37:44 51°20.295 2°49.857 77.5 3.4 90 19.5
2012-04-12 11:38:44 51°20.292 2°49.947 79.9 3.4 94 19.1
2012-04-12 11:39:44 51°20.293 2°50.035 76.2 3.3 88 18.6
2012-04-12 11:40:44 51°20.299 2°50.12 72.9 3.2 82 18.2
2012-04-12 11:41:44 51°20.305 2°50.205 75.1 3.2 85 17.9
2012-04-12 11:42:44 51°20.306 2°50.293 79.2 3.3 92 17.4
2012-04-12 11:43:44 51°20.305 2°50.381 79.7 3.3 91 16.9
2012-04-12 11:44:44 51°20.306 2°50.469 76.1 3.3 85 16.3
2012-04-12 11:45:44 51°20.314 2°50.557 71.4 3.3 80 16.2
2012-04-12 11:46:44 51°20.322 2°50.645 74.8 3.4 85 16
2012-04-12 11:47:44 51°20.324 2°50.736 80 3.5 91 15.6
2012-04-12 11:48:44 51°20.324 2°50.828 78.4 3.5 88 14.4
2012-04-12 11:49:44 51°20.331 2°50.918 73.3 3.4 79 14.2
2012-04-12 11:50:44 51°20.34 2°51.008 73.4 3.5 82 14.5
2012-04-12 11:51:44 51°20.346 2°51.1 76.3 3.5 87 14.8
2012-04-12 11:52:44 51°20.347 2°51.195 81 3.6 91 15.2
2012-04-12 11:53:44 51°20.347 2°51.292 78 3.6 86 14.4
2012-04-12 11:54:44 51°20.339 2°51.388 98.1 3.9 113 13.3
2012-04-12 11:55:44 51°20.291 2°51.468 129.6 4.6 148 13.1
2012-04-12 11:56:44 51°20.218 2°51.524 142.3 5.1 160 12.9
2012-04-12 11:57:44 51°20.135 2°51.562 153.9 5.4 169 13.2
2012-04-12 11:58:44 51°20.042 2°51.573 170.3 5.8 184 13.9
2012-04-12 11:59:44 51°19.95 2°51.522 207.3 6 213 14
2012-04-12 12:00:44 51°19.876 2°51.414 228.9 6.1 227 14.3
2012-04-12 12:01:44 51°19.809 2°51.288 235.3 6.3 232 14.3
2012-04-12 12:02:44 51°19.749 2°51.152 245.2 6.2 238 13.3
2012-04-12 12:03:44 51°19.708 2°51.005 256.7 6 248 12.6
2012-04-12 12:04:44 51°19.666 2°50.857 251.8 6.1 245 12.4
2012-04-12 12:05:44 51°19.633 2°50.708 266.5 5.9 255 11.7
2012-04-12 12:06:44 51°19.618 2°50.557 275.2 5.7 262 11.9
2012-04-12 12:07:44 51°19.605 2°50.407 273.6 5.7 262 12.3
2012-04-12 12:08:44 51°19.59 2°50.255 270.8 5.8 260 12.5
2012-04-12 12:09:44 51°19.57 2°50.104 265.7 5.9 256 12.7
2012-04-12 12:10:44 51°19.546 2°49.953 266.3 5.8 256 13.6
2012-04-12 12:11:44 51°19.525 2°49.802 269.9 5.8 259 13.8
2012-04-12 12:12:44 51°19.512 2°49.649 273.6 5.8 262 14.2
2012-04-12 12:13:44 51°19.496 2°49.496 269.4 5.9 259 14.9
2012-04-12 12:14:44 51°19.474 2°49.342 266.1 5.9 256 15.2
2012-04-12 12:15:44 51°19.452 2°49.187 268.4 6 258 14.8
2012-04-12 12:16:44 51°19.439 2°49.032 278.5 5.8 266 16.3
2012-04-12 12:17:44 51°19.434 2°48.877 280.3 5.9 266 16.9
2012-04-12 12:18:44 51°19.425 2°48.719 278.8 6 264 17.5
2012-04-12 12:19:44 51°19.413 2°48.558 276.9 6.1 262 18.1
2012-04-12 12:20:44 51°19.398 2°48.397 273.8 6.2 259 18.6
2012-04-12 12:21:44 51°19.379 2°48.235 273 6.2 259 19.3
2012-04-12 12:22:44 51°19.359 2°48.073 274.8 6.2 259 19.8
2012-04-12 12:23:44 51°19.345 2°47.909 279.6 6.2 264 20.6
2012-04-12 12:24:44 51°19.336 2°47.745 279.7 6.2 264 21
2012-04-12 12:25:44 51°19.323 2°47.578 276.2 6.3 262 21.5
2012-04-12 12:26:44 51°19.305 2°47.411 272.9 6.4 259 21.6
2012-04-12 12:27:44 51°19.285 2°47.244 273.5 6.4 259 21.6
2012-04-12 12:28:44 51°19.269 2°47.076 278.1 6.3 263 21.7
2012-04-12 12:29:44 51°19.26 2°46.909 280.5 6.2 265 21.7
2012-04-12 12:30:44 51°19.248 2°46.743 277.3 6.3 263 21.8
2012-04-12 12:31:44 51°19.233 2°46.578 275.7 6.3 261 21.9
2012-04-12 12:32:44 51°19.221 2°46.414 282.4 6.1 266 21.2
2012-04-12 12:33:44 51°19.226 2°46.259 295.7 5.7 277 20.9
2012-04-12 12:34:44 51°19.25 2°46.119 318.4 5 295 20
2012-04-12 12:35:44 51°19.297 2°46.034 352.4 3.7 328 19.1
2012-04-12 12:36:44 51°19.349 2°46.019 26 2.9 11 17.7
2012-04-12 12:37:44 51°19.386 2°46.06 55.8 2.7 59 18.8
2012-04-12 12:38:44 51°19.389 2°46.135 82.8 3.1 98 19
2012-04-12 12:39:44 51°19.383 2°46.22 81.4 3.3 97 19.8
2012-04-12 12:40:44 51°19.382 2°46.305 75.2 3.2 87 20
2012-04-12 12:41:44 51°19.383 2°46.39 77.5 3.2 91 20.7
2012-04-12 12:42:44 51°19.38 2°46.477 80.8 3.4 96 20.4
2012-04-12 12:43:44 51°19.371 2°46.565 83.7 3.4 100 21.3
2012-04-12 12:44:44 51°19.365 2°46.651 80.8 3.3 95 21.8
2012-04-12 12:45:44 51°19.359 2°46.736 78.1 3.2 91 21.6
2012-04-12 12:46:44 51°19.36 2°46.819 77.7 3.2 92 21.7
2012-04-12 12:47:44 51°19.356 2°46.904 81.6 3.3 97 21.7
2012-04-12 12:48:44 51°19.348 2°46.99 84.1 3.3 99 21.9
2012-04-12 12:49:44 51°19.341 2°47.076 83 3.4 100 21.9
2012-04-12 12:50:44 51°19.327 2°47.163 89.4 3.5 107 21.9
2012-04-12 12:51:44 51°19.305 2°47.253 93.5 3.6 111 21.9
2012-04-12 12:52:44 51°19.284 2°47.342 91.4 3.6 109 21.7
2012-04-12 12:53:44 51°19.266 2°47.431 87.2 3.5 106 21.7
2012-04-12 12:54:44 51°19.253 2°47.521 85.8 3.5 102 21.4
2012-04-12 12:55:44 51°19.239 2°47.612 88.5 3.6 106 21
2012-04-12 12:56:44 51°19.219 2°47.705 93.2 3.7 109 20.6
2012-04-12 12:57:44 51°19.197 2°47.797 92.1 3.7 109 20.1
2012-04-12 12:58:44 51°19.188 2°47.887 78.8 3.4 92 19.5
2012-04-12 12:59:44 51°19.191 2°47.975 74.9 3.4 88 19.2
2012-04-12 13:00:44 51°19.192 2°48.066 77.8 3.5 91 19
2012-04-12 13:01:44 51°19.188 2°48.16 81.9 3.6 96 18.6
2012-04-12 13:02:44 51°19.181 2°48.256 83.5 3.7 98 18.4
2012-04-12 13:03:44 51°19.176 2°48.353 80.2 3.6 92 17.7
2012-04-12 13:04:44 51°19.178 2°48.448 76.2 3.6 87 17.4
2012-04-12 13:05:44 51°19.181 2°48.544 78.9 3.8 90 16.8
2012-04-12 13:06:44 51°19.18 2°48.644 83 3.9 93 16.2
2012-04-12 13:07:44 51°19.177 2°48.747 82.9 3.9 93 15.8
2012-04-12 13:08:44 51°19.174 2°48.85 80.1 3.8 87 15.8
2012-04-12 13:09:44 51°19.191 2°48.939 58.8 3.5 63 15.4
2012-04-12 13:10:44 51°19.227 2°49.01 43.2 3.4 40 15
2012-04-12 13:11:44 51°19.278 2°49.046 21.4 3.4 11 14.9
2012-04-12 13:12:44 51°19.337 2°49.038 359.4 3.7 344 15.7
2012-04-12 13:13:44 51°19.394 2°48.988 339 4.1 322 16.8
2012-04-12 13:14:44 51°19.438 2°48.896 315.2 4.7 296 17.4
2012-04-12 13:15:44 51°19.466 2°48.77 304.6 5.1 289 18.1
2012-04-12 13:16:44 51°19.508 2°48.663 330.5 4.5 312 18.8
2012-04-12 13:17:44 51°19.563 2°48.603 0.9 3.6 344 19.6
2012-04-12 13:18:44 51°19.61 2°48.622 45.5 2.8 45 19.9
2012-04-12 13:19:44 51°19.611 2°48.694 96.3 3.3 119 19.5
2012-04-12 13:20:44 51°19.559 2°48.752 138.1 4.4 156 19
2012-04-12 13:21:44 51°19.49 2°48.805 132.8 4.7 150 18.2
2012-04-12 13:22:44 51°19.428 2°48.878 123.9 4.6 139 17.5
2012-04-12 13:23:44 51°19.369 2°48.958 125.5 4.8 140 16.7
2012-04-12 13:24:44 51°19.308 2°49.041 127.3 4.9 141 15.5
2012-04-12 13:25:44 51°19.244 2°49.121 132.9 5 145 13.3
2012-04-12 13:26:44 51°19.177 2°49.196 131.6 5 143 13.6
2012-04-12 13:27:44 51°19.114 2°49.281 127.6 4.9 137 13.7
2012-04-12 13:28:44 51°19.056 2°49.371 126 4.9 136 13
2012-04-12 13:29:44 51°18.995 2°49.46 129.4 5 139 12.1
2012-04-12 13:30:44 51°18.929 2°49.542 132.9 5.1 142 11.7
2012-04-12 13:31:44 51°18.864 2°49.624 132.3 5.1 142 11.8
2012-04-12 13:32:44 51°18.799 2°49.708 128.5 5 139 12.3
2012-04-12 13:33:44 51°18.739 2°49.797 125.7 5 137 13.2
2012-04-12 13:34:44 51°18.678 2°49.885 127.6 5.1 139 13.9
2012-04-12 13:35:44 51°18.613 2°49.971 131.3 5.1 142 14.3
2012-04-12 13:36:44 51°18.545 2°50.052 132.3 5.1 144 14.9
2012-04-12 13:37:44 51°18.477 2°50.136 130.3 5 141 15.1
2012-04-12 13:38:44 51°18.41 2°50.217 130.9 5.1 145 15.3
2012-04-12 13:39:44 51°18.342 2°50.293 127.6 4.9 143 15.2
2012-04-12 13:40:44 51°18.278 2°50.374 125 4.9 142 15.1
2012-04-12 13:41:44 51°18.213 2°50.454 128.1 4.9 143 14.8
2012-04-12 13:42:44 51°18.146 2°50.532 130.6 5.1 145 14.3
2012-04-12 13:43:44 51°18.077 2°50.609 132.3 5.2 146 14.2
2012-04-12 13:44:44 51°18.009 2°50.687 131.3 5.1 143 13.8
2012-04-12 13:45:44 51°17.945 2°50.771 125.8 4.9 139 13.5
2012-04-12 13:46:44 51°17.883 2°50.86 125.9 5.1 137 13.1
2012-04-12 13:47:44 51°17.82 2°50.949 129.9 5.1 141 12.3
2012-04-12 13:48:44 51°17.73 2°51.058 137.7 8.5 144 11.5
2012-04-12 13:49:44 51°17.584 2°51.23 138.1 12.4 142 10.4
2012-04-12 13:50:44 51°17.421 2°51.437 137.8 12.6 141 11
2012-04-12 13:51:44 51°17.26 2°51.652 136.1 12.5 138 11.6
2012-04-12 13:52:44 51°17.109 2°51.883 134.9 12.4 137 12
2012-04-12 13:53:44 51°16.946 2°52.094 139.8 12.7 144 12
2012-04-12 13:54:44 51°16.766 2°52.272 145.6 12.6 148 11.8
2012-04-12 13:55:44 51°16.588 2°52.455 142.9 12.5 145 12.5
2012-04-12 13:56:44 51°16.423 2°52.664 141.3 12.6 145 13
2012-04-12 13:57:44 51°16.25 2°52.855 144.2 12.5 145 13.4
2012-04-12 13:58:44 51°16.077 2°53.046 142.8 12.4 145 13.2
2012-04-12 13:59:44 51°15.908 2°53.244 139.8 12.6 142 12.9
2012-04-12 14:00:44 51°15.747 2°53.454 139.4 12.5 143 12.6
2012-04-12 14:01:44 51°15.584 2°53.652 140.8 11.6 143 12.2
2012-04-12 14:02:44 51°15.454 2°53.811 139.9 8.3 144 12
2012-04-12 14:03:44 51°15.319 2°53.975 140.9 11.8 141 11.1
2012-04-12 14:04:44 51°15.16 2°54.176 140.6 12.2 140 10.5
2012-04-12 14:05:44 51°15.001 2°54.38 141.3 12.2 142 10.3
2012-04-12 14:06:44 51°14.843 2°54.588 140.7 12.3 141 12.7
2012-04-12 14:07:44 51°14.684 2°54.793 141.9 12.3 142 12.4
2012-04-12 14:08:44 51°14.522 2°54.995 142.1 12.3 143 12.6
2012-04-12 14:09:44 51°14.364 2°55.178 144 10.4 144 -999
2012-04-12 14:10:48 51°14.225 2°55.329 148.3 8.8 148 11.3
2012-04-12 14:11:47 51°14.113 2°55.422 155.1 7.2 155 11.4
2012-04-12 14:12:46 51°14.01 2°55.497 155 6.6 154 -999
2012-04-12 14:13:45 51°13.918 2°55.572 154 6.4 153 11.8
2012-04-12 14:14:46 51°13.821 2°55.65 153.4 6.4 152 11.9
2012-04-12 14:15:48 51°13.745 2°55.739 137 5 135 -999
2012-04-12 14:16:48 51°13.694 2°55.831 129.3 4.3 128 11.5
2012-04-12 14:17:48 51°13.658 2°55.916 122.7 3.7 120 -999
2012-04-12 14:18:48 51°13.639 2°55.995 103.9 2.6 108 10.2
2012-04-12 14:19:48 51°13.636 2°56.016 106.8 0.1 7 -999